sensor_id;sensor_type;location;lat;lon;timestamp;pressure;altitude;pressure_sealevel;temperature
68027;BMP180;54819;48.030;14.710;2023-09-30T00:00:07;98070.80;;;17.28
68027;BMP180;54819;48.030;14.710;2023-09-30T00:02:38;98076.20;;;17.30
68027;BMP180;54819;48.030;14.710;2023-09-30T00:05:05;98072.40;;;17.30
68027;BMP180;54819;48.030;14.710;2023-09-30T00:07:32;98077.80;;;17.30
68027;BMP180;54819;48.030;14.710;2023-09-30T00:09:59;98072.00;;;17.30
68027;BMP180;54819;48.030;14.710;2023-09-30T00:12:26;98070.60;;;17.30
68027;BMP180;54819;48.030;14.710;2023-09-30T00:14:54;98071.60;;;17.30
68027;BMP180;54819;48.030;14.710;2023-09-30T00:17:20;98073.00;;;17.30
68027;BMP180;54819;48.030;14.710;2023-09-30T00:19:47;98070.40;;;17.30
68027;BMP180;54819;48.030;14.710;2023-09-30T00:22:14;98069.60;;;17.36
68027;BMP180;54819;48.030;14.710;2023-09-30T00:24:40;98070.20;;;17.38
68027;BMP180;54819;48.030;14.710;2023-09-30T00:27:07;98072.20;;;17.40
68027;BMP180;54819;48.030;14.710;2023-09-30T00:29:34;98074.00;;;17.40
68027;BMP180;54819;48.030;14.710;2023-09-30T00:32:02;98077.00;;;17.40
68027;BMP180;54819;48.030;14.710;2023-09-30T00:34:33;98079.40;;;17.40
68027;BMP180;54819;48.030;14.710;2023-09-30T00:37:00;98078.40;;;17.40
68027;BMP180;54819;48.030;14.710;2023-09-30T00:39:27;98083.40;;;17.50
68027;BMP180;54819;48.030;14.710;2023-09-30T00:41:57;98081.60;;;17.50
68027;BMP180;54819;48.030;14.710;2023-09-30T00:44:30;98084.20;;;17.50
68027;BMP180;54819;48.030;14.710;2023-09-30T00:46:57;98080.40;;;17.50
68027;BMP180;54819;48.030;14.710;2023-09-30T00:49:25;98086.20;;;17.60
68027;BMP180;54819;48.030;14.710;2023-09-30T00:51:53;98089.80;;;17.60
68027;BMP180;54819;48.030;14.710;2023-09-30T00:54:21;98085.80;;;17.70
68027;BMP180;54819;48.030;14.710;2023-09-30T00:56:50;98091.80;;;17.70
68027;BMP180;54819;48.030;14.710;2023-09-30T00:59:18;98092.80;;;17.80
68027;BMP180;54819;48.030;14.710;2023-09-30T01:01:45;98095.40;;;17.90
68027;BMP180;54819;48.030;14.710;2023-09-30T01:04:14;98101.20;;;18.00
68027;BMP180;54819;48.030;14.710;2023-09-30T01:06:42;98106.20;;;18.10
68027;BMP180;54819;48.030;14.710;2023-09-30T01:09:08;98114.80;;;18.20
68027;BMP180;54819;48.030;14.710;2023-09-30T01:11:35;98118.00;;;18.30
68027;BMP180;54819;48.030;14.710;2023-09-30T01:14:03;98119.40;;;18.40
68027;BMP180;54819;48.030;14.710;2023-09-30T01:16:29;98121.00;;;18.50
68027;BMP180;54819;48.030;14.710;2023-09-30T01:18:56;98124.00;;;18.60
68027;BMP180;54819;48.030;14.710;2023-09-30T01:21:24;98127.40;;;18.70
68027;BMP180;54819;48.030;14.710;2023-09-30T01:23:54;98131.80;;;18.80
68027;BMP180;54819;48.030;14.710;2023-09-30T01:26:22;98129.60;;;18.90
68027;BMP180;54819;48.030;14.710;2023-09-30T01:28:49;98128.40;;;19.00
68027;BMP180;54819;48.030;14.710;2023-09-30T01:31:16;98130.40;;;19.10
68027;BMP180;54819;48.030;14.710;2023-09-30T01:33:42;98131.20;;;19.10
68027;BMP180;54819;48.030;14.710;2023-09-30T01:36:10;98144.60;;;19.20
68027;BMP180;54819;48.030;14.710;2023-09-30T01:38:37;98140.80;;;19.26
68027;BMP180;54819;48.030;14.710;2023-09-30T01:41:04;98140.60;;;19.30
68027;BMP180;54819;48.030;14.710;2023-09-30T01:43:32;98143.40;;;19.30
68027;BMP180;54819;48.030;14.710;2023-09-30T01:45:59;98148.20;;;19.40
68027;BMP180;54819;48.030;14.710;2023-09-30T01:48:26;98151.60;;;19.40
68027;BMP180;54819;48.030;14.710;2023-09-30T01:50:52;98155.20;;;19.40
68027;BMP180;54819;48.030;14.710;2023-09-30T01:53:19;98149.00;;;19.40
68027;BMP180;54819;48.030;14.710;2023-09-30T01:55:45;98151.60;;;19.40
68027;BMP180;54819;48.030;14.710;2023-09-30T01:58:14;98153.20;;;19.40
68027;BMP180;54819;48.030;14.710;2023-09-30T02:00:40;98151.40;;;19.44
68027;BMP180;54819;48.030;14.710;2023-09-30T02:03:07;98158.80;;;19.50
68027;BMP180;54819;48.030;14.710;2023-09-30T02:05:34;98165.00;;;19.50
68027;BMP180;54819;48.030;14.710;2023-09-30T02:08:01;98168.00;;;19.50
68027;BMP180;54819;48.030;14.710;2023-09-30T02:10:32;98170.20;;;19.50
68027;BMP180;54819;48.030;14.710;2023-09-30T02:13:00;98173.20;;;19.50
68027;BMP180;54819;48.030;14.710;2023-09-30T02:15:27;98171.60;;;19.40
68027;BMP180;54819;48.030;14.710;2023-09-30T02:17:54;98166.60;;;19.40
68027;BMP180;54819;48.030;14.710;2023-09-30T02:20:21;98164.40;;;19.38
68027;BMP180;54819;48.030;14.710;2023-09-30T02:22:52;98171.60;;;19.30
68027;BMP180;54819;48.030;14.710;2023-09-30T02:25:18;98172.40;;;19.30
68027;BMP180;54819;48.030;14.710;2023-09-30T02:27:45;98176.80;;;19.30
68027;BMP180;54819;48.030;14.710;2023-09-30T02:30:12;98181.80;;;19.20
68027;BMP180;54819;48.030;14.710;2023-09-30T02:32:41;98184.60;;;19.20
68027;BMP180;54819;48.030;14.710;2023-09-30T02:35:09;98189.00;;;19.20
68027;BMP180;54819;48.030;14.710;2023-09-30T02:37:38;98194.60;;;19.20
68027;BMP180;54819;48.030;14.710;2023-09-30T02:40:07;98194.00;;;19.16
68027;BMP180;54819;48.030;14.710;2023-09-30T02:42:40;98200.20;;;19.10
68027;BMP180;54819;48.030;14.710;2023-09-30T02:45:08;98206.00;;;19.10
68027;BMP180;54819;48.030;14.710;2023-09-30T02:47:37;98207.80;;;19.10
68027;BMP180;54819;48.030;14.710;2023-09-30T02:50:08;98203.60;;;19.10
68027;BMP180;54819;48.030;14.710;2023-09-30T02:52:38;98205.80;;;19.10
68027;BMP180;54819;48.030;14.710;2023-09-30T02:55:09;98205.00;;;19.10
68027;BMP180;54819;48.030;14.710;2023-09-30T02:57:35;98205.80;;;19.10
68027;BMP180;54819;48.030;14.710;2023-09-30T03:00:06;98211.60;;;19.10
68027;BMP180;54819;48.030;14.710;2023-09-30T03:02:52;98209.60;;;19.10
68027;BMP180;54819;48.030;14.710;2023-09-30T03:05:19;98210.00;;;19.10
68027;BMP180;54819;48.030;14.710;2023-09-30T03:07:47;98214.80;;;19.10
68027;BMP180;54819;48.030;14.710;2023-09-30T03:10:14;98221.60;;;19.04
68027;BMP180;54819;48.030;14.710;2023-09-30T03:12:47;98221.20;;;19.02
68027;BMP180;54819;48.030;14.710;2023-09-30T03:15:16;98222.00;;;19.02
68027;BMP180;54819;48.030;14.710;2023-09-30T03:17:43;98221.40;;;19.00
68027;BMP180;54819;48.030;14.710;2023-09-30T03:20:11;98218.60;;;19.00
68027;BMP180;54819;48.030;14.710;2023-09-30T03:22:42;98226.40;;;19.00
68027;BMP180;54819;48.030;14.710;2023-09-30T03:25:12;98219.80;;;19.00
68027;BMP180;54819;48.030;14.710;2023-09-30T03:27:41;98222.60;;;19.00
68027;BMP180;54819;48.030;14.710;2023-09-30T03:30:08;98221.80;;;19.00
68027;BMP180;54819;48.030;14.710;2023-09-30T03:32:35;98222.20;;;19.00
68027;BMP180;54819;48.030;14.710;2023-09-30T03:35:06;98219.60;;;19.00
68027;BMP180;54819;48.030;14.710;2023-09-30T03:37:33;98223.80;;;19.00
68027;BMP180;54819;48.030;14.710;2023-09-30T03:40:01;98229.40;;;19.00
68027;BMP180;54819;48.030;14.710;2023-09-30T03:42:39;98237.00;;;19.00
68027;BMP180;54819;48.030;14.710;2023-09-30T03:45:06;98234.60;;;19.00
68027;BMP180;54819;48.030;14.710;2023-09-30T03:47:37;98237.20;;;19.00
68027;BMP180;54819;48.030;14.710;2023-09-30T03:50:05;98241.60;;;19.00
68027;BMP180;54819;48.030;14.710;2023-09-30T03:52:33;98235.80;;;19.00
68027;BMP180;54819;48.030;14.710;2023-09-30T03:55:00;98234.00;;;19.00
68027;BMP180;54819;48.030;14.710;2023-09-30T03:57:32;98237.40;;;19.00
68027;BMP180;54819;48.030;14.710;2023-09-30T04:00:00;98247.60;;;18.90
68027;BMP180;54819;48.030;14.710;2023-09-30T04:02:37;98250.40;;;18.90
68027;BMP180;54819;48.030;14.710;2023-09-30T04:05:04;98257.80;;;18.90
68027;BMP180;54819;48.030;14.710;2023-09-30T04:07:31;98268.20;;;18.90
68027;BMP180;54819;48.030;14.710;2023-09-30T04:09:59;98267.60;;;18.90
68027;BMP180;54819;48.030;14.710;2023-09-30T04:12:27;98261.60;;;18.90
68027;BMP180;54819;48.030;14.710;2023-09-30T04:14:55;98258.00;;;18.90
68027;BMP180;54819;48.030;14.710;2023-09-30T04:17:21;98258.80;;;18.84
68027;BMP180;54819;48.030;14.710;2023-09-30T04:19:49;98255.60;;;18.80
68027;BMP180;54819;48.030;14.710;2023-09-30T04:22:19;98258.40;;;18.80
68027;BMP180;54819;48.030;14.710;2023-09-30T04:24:47;98258.80;;;18.74
68027;BMP180;54819;48.030;14.710;2023-09-30T04:27:19;98258.00;;;18.70
68027;BMP180;54819;48.030;14.710;2023-09-30T04:29:46;98262.80;;;18.70
68027;BMP180;54819;48.030;14.710;2023-09-30T04:32:13;98263.40;;;18.70
68027;BMP180;54819;48.030;14.710;2023-09-30T04:34:40;98265.20;;;18.62
68027;BMP180;54819;48.030;14.710;2023-09-30T04:37:10;98274.40;;;18.60
68027;BMP180;54819;48.030;14.710;2023-09-30T04:39:38;98272.80;;;18.60
68027;BMP180;54819;48.030;14.710;2023-09-30T04:42:05;98280.00;;;18.60
68027;BMP180;54819;48.030;14.710;2023-09-30T04:44:32;98283.40;;;18.60
68027;BMP180;54819;48.030;14.710;2023-09-30T04:46:58;98286.60;;;18.60
68027;BMP180;54819;48.030;14.710;2023-09-30T04:49:26;98290.80;;;18.60
68027;BMP180;54819;48.030;14.710;2023-09-30T04:51:53;98293.80;;;18.54
68027;BMP180;54819;48.030;14.710;2023-09-30T04:54:20;98294.60;;;18.50
68027;BMP180;54819;48.030;14.710;2023-09-30T04:56:48;98296.80;;;18.50
68027;BMP180;54819;48.030;14.710;2023-09-30T04:59:14;98304.00;;;18.50
68027;BMP180;54819;48.030;14.710;2023-09-30T05:01:41;98309.60;;;18.50
68027;BMP180;54819;48.030;14.710;2023-09-30T05:04:07;98313.20;;;18.50
68027;BMP180;54819;48.030;14.710;2023-09-30T05:06:35;98311.00;;;18.50
68027;BMP180;54819;48.030;14.710;2023-09-30T05:09:02;98316.00;;;18.52
68027;BMP180;54819;48.030;14.710;2023-09-30T05:11:29;98323.20;;;18.56
68027;BMP180;54819;48.030;14.710;2023-09-30T05:13:55;98319.40;;;18.58
68027;BMP180;54819;48.030;14.710;2023-09-30T05:16:22;98329.20;;;18.60
68027;BMP180;54819;48.030;14.710;2023-09-30T05:18:49;98330.40;;;18.60
68027;BMP180;54819;48.030;14.710;2023-09-30T05:21:15;98337.80;;;18.60
68027;BMP180;54819;48.030;14.710;2023-09-30T05:23:42;98338.40;;;18.60
68027;BMP180;54819;48.030;14.710;2023-09-30T05:26:09;98343.60;;;18.60
68027;BMP180;54819;48.030;14.710;2023-09-30T05:28:35;98342.00;;;18.60
68027;BMP180;54819;48.030;14.710;2023-09-30T05:31:02;98338.20;;;18.60
68027;BMP180;54819;48.030;14.710;2023-09-30T05:33:29;98340.60;;;18.60
68027;BMP180;54819;48.030;14.710;2023-09-30T05:35:57;98339.20;;;18.60
68027;BMP180;54819;48.030;14.710;2023-09-30T05:38:23;98340.20;;;18.60
68027;BMP180;54819;48.030;14.710;2023-09-30T05:40:51;98339.20;;;18.60
68027;BMP180;54819;48.030;14.710;2023-09-30T05:43:17;98336.20;;;18.60
68027;BMP180;54819;48.030;14.710;2023-09-30T05:45:44;98336.40;;;18.62
68027;BMP180;54819;48.030;14.710;2023-09-30T05:48:21;98330.80;;;18.70
68027;BMP180;54819;48.030;14.710;2023-09-30T05:50:48;98329.80;;;18.70
68027;BMP180;54819;48.030;14.710;2023-09-30T05:53:14;98333.20;;;18.70
68027;BMP180;54819;48.030;14.710;2023-09-30T05:55:42;98335.60;;;18.80
68027;BMP180;54819;48.030;14.710;2023-09-30T05:58:09;98335.80;;;18.80
68027;BMP180;54819;48.030;14.710;2023-09-30T06:00:36;98337.60;;;18.80
68027;BMP180;54819;48.030;14.710;2023-09-30T06:03:04;98339.00;;;18.80
68027;BMP180;54819;48.030;14.710;2023-09-30T06:05:33;98339.40;;;18.90
68027;BMP180;54819;48.030;14.710;2023-09-30T06:08:02;98337.40;;;18.90
68027;BMP180;54819;48.030;14.710;2023-09-30T06:10:30;98336.60;;;19.00
68027;BMP180;54819;48.030;14.710;2023-09-30T06:12:57;98338.00;;;19.00
68027;BMP180;54819;48.030;14.710;2023-09-30T06:15:25;98333.60;;;19.08
68027;BMP180;54819;48.030;14.710;2023-09-30T06:17:55;98343.00;;;19.10
68027;BMP180;54819;48.030;14.710;2023-09-30T06:20:22;98346.80;;;19.10
68027;BMP180;54819;48.030;14.710;2023-09-30T06:22:53;98348.00;;;19.10
68027;BMP180;54819;48.030;14.710;2023-09-30T06:25:20;98346.40;;;19.10
68027;BMP180;54819;48.030;14.710;2023-09-30T06:27:48;98346.80;;;19.12
68027;BMP180;54819;48.030;14.710;2023-09-30T06:30:17;98355.40;;;19.20
68027;BMP180;54819;48.030;14.710;2023-09-30T06:32:44;98357.60;;;19.20
68027;BMP180;54819;48.030;14.710;2023-09-30T06:35:12;98360.40;;;19.22
68027;BMP180;54819;48.030;14.710;2023-09-30T06:37:40;98369.40;;;19.26
68027;BMP180;54819;48.030;14.710;2023-09-30T06:40:09;98373.00;;;19.26
68027;BMP180;54819;48.030;14.710;2023-09-30T06:42:38;98378.00;;;19.30
68027;BMP180;54819;48.030;14.710;2023-09-30T06:45:07;98374.60;;;19.30
68027;BMP180;54819;48.030;14.710;2023-09-30T06:47:37;98369.60;;;19.30
68027;BMP180;54819;48.030;14.710;2023-09-30T06:50:09;98375.60;;;19.30
68027;BMP180;54819;48.030;14.710;2023-09-30T06:52:40;98372.60;;;19.30
68027;BMP180;54819;48.030;14.710;2023-09-30T06:55:08;98372.40;;;19.36
68027;BMP180;54819;48.030;14.710;2023-09-30T06:57:36;98375.40;;;19.40
68027;BMP180;54819;48.030;14.710;2023-09-30T07:00:10;98374.20;;;19.40
68027;BMP180;54819;48.030;14.710;2023-09-30T07:02:40;98370.60;;;19.50
68027;BMP180;54819;48.030;14.710;2023-09-30T07:05:08;98372.20;;;19.52
68027;BMP180;54819;48.030;14.710;2023-09-30T07:07:35;98367.80;;;19.60
68027;BMP180;54819;48.030;14.710;2023-09-30T07:10:03;98365.00;;;19.60
68027;BMP180;54819;48.030;14.710;2023-09-30T07:12:31;98359.80;;;19.70
68027;BMP180;54819;48.030;14.710;2023-09-30T07:15:03;98369.80;;;19.80
68027;BMP180;54819;48.030;14.710;2023-09-30T07:17:32;98369.60;;;19.90
68027;BMP180;54819;48.030;14.710;2023-09-30T07:20:01;98369.80;;;20.10
68027;BMP180;54819;48.030;14.710;2023-09-30T07:22:28;98371.80;;;20.22
68027;BMP180;54819;48.030;14.710;2023-09-30T07:25:09;98375.60;;;20.34
68027;BMP180;54819;48.030;14.710;2023-09-30T07:27:36;98372.60;;;20.48
68027;BMP180;54819;48.030;14.710;2023-09-30T07:30:03;98375.20;;;20.60
68027;BMP180;54819;48.030;14.710;2023-09-30T07:32:33;98378.60;;;20.80
68027;BMP180;54819;48.030;14.710;2023-09-30T07:34:59;98381.80;;;20.90
68027;BMP180;54819;48.030;14.710;2023-09-30T07:37:26;98386.00;;;20.90
68027;BMP180;54819;48.030;14.710;2023-09-30T07:39:52;98386.00;;;21.00
68027;BMP180;54819;48.030;14.710;2023-09-30T07:42:19;98379.80;;;21.10
68027;BMP180;54819;48.030;14.710;2023-09-30T07:44:46;98382.00;;;21.20
68027;BMP180;54819;48.030;14.710;2023-09-30T07:47:12;98379.80;;;21.30
68027;BMP180;54819;48.030;14.710;2023-09-30T07:49:39;98393.60;;;21.40
68027;BMP180;54819;48.030;14.710;2023-09-30T07:52:06;98393.60;;;21.60
68027;BMP180;54819;48.030;14.710;2023-09-30T07:54:33;98404.40;;;21.70
68027;BMP180;54819;48.030;14.710;2023-09-30T07:56:59;98409.00;;;21.80
68027;BMP180;54819;48.030;14.710;2023-09-30T07:59:28;98416.20;;;21.80
68027;BMP180;54819;48.030;14.710;2023-09-30T08:01:55;98411.60;;;21.80
68027;BMP180;54819;48.030;14.710;2023-09-30T08:04:23;98412.40;;;21.80
68027;BMP180;54819;48.030;14.710;2023-09-30T08:06:50;98411.60;;;21.90
68027;BMP180;54819;48.030;14.710;2023-09-30T08:09:20;98424.20;;;21.92
68027;BMP180;54819;48.030;14.710;2023-09-30T08:11:48;98419.40;;;22.00
68027;BMP180;54819;48.030;14.710;2023-09-30T08:14:14;98413.80;;;22.00
68027;BMP180;54819;48.030;14.710;2023-09-30T08:16:42;98413.80;;;22.10
68027;BMP180;54819;48.030;14.710;2023-09-30T08:19:09;98414.00;;;22.10
68027;BMP180;54819;48.030;14.710;2023-09-30T08:21:36;98415.20;;;22.20
68027;BMP180;54819;48.030;14.710;2023-09-30T08:24:03;98418.60;;;22.30
68027;BMP180;54819;48.030;14.710;2023-09-30T08:26:30;98424.20;;;22.32
68027;BMP180;54819;48.030;14.710;2023-09-30T08:28:56;98430.40;;;22.40
68027;BMP180;54819;48.030;14.710;2023-09-30T08:31:23;98422.80;;;22.50
68027;BMP180;54819;48.030;14.710;2023-09-30T08:33:50;98429.00;;;22.60
68027;BMP180;54819;48.030;14.710;2023-09-30T08:36:17;98429.20;;;22.70
68027;BMP180;54819;48.030;14.710;2023-09-30T08:38:44;98431.00;;;22.80
68027;BMP180;54819;48.030;14.710;2023-09-30T08:41:37;98430.40;;;22.90
68027;BMP180;54819;48.030;14.710;2023-09-30T08:44:04;98428.20;;;23.00
68027;BMP180;54819;48.030;14.710;2023-09-30T08:46:32;98420.60;;;23.02
68027;BMP180;54819;48.030;14.710;2023-09-30T08:49:02;98418.80;;;23.20
68027;BMP180;54819;48.030;14.710;2023-09-30T08:51:30;98421.20;;;23.30
68027;BMP180;54819;48.030;14.710;2023-09-30T08:53:58;98419.20;;;23.40
68027;BMP180;54819;48.030;14.710;2023-09-30T08:56:30;98420.40;;;23.50
68027;BMP180;54819;48.030;14.710;2023-09-30T08:58:58;98422.20;;;23.60
68027;BMP180;54819;48.030;14.710;2023-09-30T09:01:30;98425.80;;;23.70
68027;BMP180;54819;48.030;14.710;2023-09-30T09:03:57;98430.60;;;23.70
68027;BMP180;54819;48.030;14.710;2023-09-30T09:06:25;98428.60;;;23.70
68027;BMP180;54819;48.030;14.710;2023-09-30T09:08:53;98424.00;;;23.70
68027;BMP180;54819;48.030;14.710;2023-09-30T09:11:20;98424.80;;;23.70
68027;BMP180;54819;48.030;14.710;2023-09-30T09:13:52;98420.80;;;23.60
68027;BMP180;54819;48.030;14.710;2023-09-30T09:16:23;98419.20;;;23.58
68027;BMP180;54819;48.030;14.710;2023-09-30T09:18:50;98424.00;;;23.50
68027;BMP180;54819;48.030;14.710;2023-09-30T09:21:19;98422.00;;;23.40
68027;BMP180;54819;48.030;14.710;2023-09-30T09:23:48;98418.80;;;23.40
68027;BMP180;54819;48.030;14.710;2023-09-30T09:26:30;98422.40;;;23.40
68027;BMP180;54819;48.030;14.710;2023-09-30T09:29:03;98419.40;;;23.40
68027;BMP180;54819;48.030;14.710;2023-09-30T09:31:33;98422.20;;;23.40
68027;BMP180;54819;48.030;14.710;2023-09-30T09:34:13;98427.00;;;23.40
68027;BMP180;54819;48.030;14.710;2023-09-30T09:36:45;98424.80;;;23.40
68027;BMP180;54819;48.030;14.710;2023-09-30T09:39:15;98422.20;;;23.36
68027;BMP180;54819;48.030;14.710;2023-09-30T09:41:53;98424.00;;;23.40
68027;BMP180;54819;48.030;14.710;2023-09-30T09:44:21;98426.80;;;23.50
68027;BMP180;54819;48.030;14.710;2023-09-30T09:46:49;98431.80;;;23.40
68027;BMP180;54819;48.030;14.710;2023-09-30T09:49:18;98436.40;;;23.40
68027;BMP180;54819;48.030;14.710;2023-09-30T09:51:48;98432.20;;;23.40
68027;BMP180;54819;48.030;14.710;2023-09-30T09:54:16;98431.00;;;23.50
68027;BMP180;54819;48.030;14.710;2023-09-30T09:56:49;98429.00;;;23.70
68027;BMP180;54819;48.030;14.710;2023-09-30T09:59:16;98427.60;;;23.78
68027;BMP180;54819;48.030;14.710;2023-09-30T10:01:42;98428.60;;;23.80
68027;BMP180;54819;48.030;14.710;2023-09-30T10:04:13;98428.00;;;23.90
68027;BMP180;54819;48.030;14.710;2023-09-30T10:06:44;98428.40;;;23.84
68027;BMP180;54819;48.030;14.710;2023-09-30T10:09:16;98431.80;;;23.86
68027;BMP180;54819;48.030;14.710;2023-09-30T10:11:45;98429.20;;;23.80
68027;BMP180;54819;48.030;14.710;2023-09-30T10:14:32;98430.00;;;23.80
68027;BMP180;54819;48.030;14.710;2023-09-30T10:16:59;98430.60;;;23.80
68027;BMP180;54819;48.030;14.710;2023-09-30T10:19:26;98430.20;;;23.80
68027;BMP180;54819;48.030;14.710;2023-09-30T10:24:58;98428.20;;;23.80
68027;BMP180;54819;48.030;14.710;2023-09-30T10:27:30;98425.60;;;23.80
68027;BMP180;54819;48.030;14.710;2023-09-30T10:37:45;98416.60;;;24.20
68027;BMP180;54819;48.030;14.710;2023-09-30T10:40:30;98414.80;;;24.24
68027;BMP180;54819;48.030;14.710;2023-09-30T10:43:00;98413.20;;;24.30
68027;BMP180;54819;48.030;14.710;2023-09-30T10:51:15;98419.40;;;24.00
68027;BMP180;54819;48.030;14.710;2023-09-30T10:54:01;98417.40;;;23.94
68027;BMP180;54819;48.030;14.710;2023-09-30T10:56:34;98415.60;;;23.90
68027;BMP180;54819;48.030;14.710;2023-09-30T10:59:01;98406.40;;;23.90
68027;BMP180;54819;48.030;14.710;2023-09-30T11:01:33;98404.60;;;23.80
68027;BMP180;54819;48.030;14.710;2023-09-30T11:04:02;98403.40;;;23.70
68027;BMP180;54819;48.030;14.710;2023-09-30T11:06:39;98402.60;;;23.60
68027;BMP180;54819;48.030;14.710;2023-09-30T11:09:08;98396.00;;;23.60
68027;BMP180;54819;48.030;14.710;2023-09-30T11:11:42;98389.80;;;23.60
68027;BMP180;54819;48.030;14.710;2023-09-30T11:14:20;98381.40;;;23.60
68027;BMP180;54819;48.030;14.710;2023-09-30T11:16:49;98380.40;;;23.52
68027;BMP180;54819;48.030;14.710;2023-09-30T11:19:16;98380.80;;;23.50
68027;BMP180;54819;48.030;14.710;2023-09-30T11:21:43;98378.00;;;23.40
68027;BMP180;54819;48.030;14.710;2023-09-30T11:24:11;98377.80;;;23.30
68027;BMP180;54819;48.030;14.710;2023-09-30T11:26:38;98372.40;;;23.40
68027;BMP180;54819;48.030;14.710;2023-09-30T11:29:15;98371.40;;;23.40
68027;BMP180;54819;48.030;14.710;2023-09-30T11:31:46;98372.00;;;23.40
68027;BMP180;54819;48.030;14.710;2023-09-30T11:34:18;98372.40;;;23.40
68027;BMP180;54819;48.030;14.710;2023-09-30T11:36:51;98366.80;;;23.40
68027;BMP180;54819;48.030;14.710;2023-09-30T11:39:22;98363.40;;;23.40
68027;BMP180;54819;48.030;14.710;2023-09-30T11:41:50;98370.80;;;23.38
68027;BMP180;54819;48.030;14.710;2023-09-30T11:44:18;98369.60;;;23.40
68027;BMP180;54819;48.030;14.710;2023-09-30T11:50:06;98371.20;;;23.70
68027;BMP180;54819;48.030;14.710;2023-09-30T11:52:28;98365.40;;;23.90
68027;BMP180;54819;48.030;14.710;2023-09-30T11:54:55;98369.00;;;23.98
68027;BMP180;54819;48.030;14.710;2023-09-30T11:57:22;98376.00;;;24.00
68027;BMP180;54819;48.030;14.710;2023-09-30T11:59:49;98379.20;;;24.00
68027;BMP180;54819;48.030;14.710;2023-09-30T12:02:17;98379.60;;;23.96
68027;BMP180;54819;48.030;14.710;2023-09-30T12:04:45;98379.00;;;23.90
68027;BMP180;54819;48.030;14.710;2023-09-30T12:07:14;98378.80;;;23.82
68027;BMP180;54819;48.030;14.710;2023-09-30T12:09:42;98377.40;;;23.80
68027;BMP180;54819;48.030;14.710;2023-09-30T12:12:09;98380.00;;;23.70
68027;BMP180;54819;48.030;14.710;2023-09-30T12:14:37;98379.00;;;23.60
68027;BMP180;54819;48.030;14.710;2023-09-30T12:17:04;98377.20;;;23.60
68027;BMP180;54819;48.030;14.710;2023-09-30T12:19:32;98368.00;;;23.60
68027;BMP180;54819;48.030;14.710;2023-09-30T12:21:58;98366.60;;;23.60
68027;BMP180;54819;48.030;14.710;2023-09-30T12:24:25;98361.00;;;23.60
68027;BMP180;54819;48.030;14.710;2023-09-30T12:26:54;98362.80;;;23.50
68027;BMP180;54819;48.030;14.710;2023-09-30T12:29:22;98359.60;;;23.40
68027;BMP180;54819;48.030;14.710;2023-09-30T12:31:52;98360.40;;;23.30
68027;BMP180;54819;48.030;14.710;2023-09-30T12:34:21;98359.80;;;23.20
68027;BMP180;54819;48.030;14.710;2023-09-30T12:36:54;98366.60;;;23.10
68027;BMP180;54819;48.030;14.710;2023-09-30T12:39:22;98368.20;;;23.10
68027;BMP180;54819;48.030;14.710;2023-09-30T12:41:52;98368.60;;;23.00
68027;BMP180;54819;48.030;14.710;2023-09-30T12:44:19;98364.00;;;22.90
68027;BMP180;54819;48.030;14.710;2023-09-30T12:46:46;98357.20;;;22.90
68027;BMP180;54819;48.030;14.710;2023-09-30T12:49:13;98355.00;;;22.90
68027;BMP180;54819;48.030;14.710;2023-09-30T12:51:40;98354.80;;;22.90
68027;BMP180;54819;48.030;14.710;2023-09-30T12:54:07;98347.00;;;22.92
68027;BMP180;54819;48.030;14.710;2023-09-30T12:56:35;98346.20;;;23.00
68027;BMP180;54819;48.030;14.710;2023-09-30T12:59:02;98348.20;;;22.90
68027;BMP180;54819;48.030;14.710;2023-09-30T13:01:30;98338.40;;;22.84
68027;BMP180;54819;48.030;14.710;2023-09-30T13:04:00;98341.20;;;22.80
68027;BMP180;54819;48.030;14.710;2023-09-30T13:06:27;98340.80;;;22.80
68027;BMP180;54819;48.030;14.710;2023-09-30T13:08:55;98331.60;;;22.80
68027;BMP180;54819;48.030;14.710;2023-09-30T13:11:22;98328.20;;;22.80
68027;BMP180;54819;48.030;14.710;2023-09-30T13:13:49;98329.40;;;22.80
68027;BMP180;54819;48.030;14.710;2023-09-30T13:16:15;98332.40;;;22.80
68027;BMP180;54819;48.030;14.710;2023-09-30T13:18:42;98331.40;;;22.80
68027;BMP180;54819;48.030;14.710;2023-09-30T13:21:09;98329.80;;;22.80
68027;BMP180;54819;48.030;14.710;2023-09-30T13:23:38;98327.00;;;22.80
68027;BMP180;54819;48.030;14.710;2023-09-30T13:26:05;98324.60;;;22.90
68027;BMP180;54819;48.030;14.710;2023-09-30T13:28:31;98326.20;;;22.90
68027;BMP180;54819;48.030;14.710;2023-09-30T13:30:59;98321.20;;;22.90
68027;BMP180;54819;48.030;14.710;2023-09-30T13:33:26;98324.80;;;22.90
68027;BMP180;54819;48.030;14.710;2023-09-30T13:35:53;98320.00;;;22.96
68027;BMP180;54819;48.030;14.710;2023-09-30T13:38:22;98318.00;;;23.00
68027;BMP180;54819;48.030;14.710;2023-09-30T13:40:48;98317.40;;;23.00
68027;BMP180;54819;48.030;14.710;2023-09-30T13:43:15;98312.80;;;23.00
68027;BMP180;54819;48.030;14.710;2023-09-30T13:45:42;98310.20;;;23.00
68027;BMP180;54819;48.030;14.710;2023-09-30T13:48:08;98315.40;;;23.00
68027;BMP180;54819;48.030;14.710;2023-09-30T13:50:35;98315.20;;;23.00
68027;BMP180;54819;48.030;14.710;2023-09-30T13:53:02;98321.20;;;23.02
68027;BMP180;54819;48.030;14.710;2023-09-30T13:55:29;98325.00;;;23.02
68027;BMP180;54819;48.030;14.710;2023-09-30T13:57:56;98330.60;;;23.10
68027;BMP180;54819;48.030;14.710;2023-09-30T14:00:23;98330.00;;;23.10
68027;BMP180;54819;48.030;14.710;2023-09-30T14:02:51;98323.00;;;23.06
68027;BMP180;54819;48.030;14.710;2023-09-30T14:05:18;98313.40;;;23.00
68027;BMP180;54819;48.030;14.710;2023-09-30T14:07:47;98313.00;;;23.00
68027;BMP180;54819;48.030;14.710;2023-09-30T14:10:15;98306.60;;;23.06
68027;BMP180;54819;48.030;14.710;2023-09-30T14:12:42;98307.60;;;23.10
68027;BMP180;54819;48.030;14.710;2023-09-30T14:15:10;98304.00;;;23.10
68027;BMP180;54819;48.030;14.710;2023-09-30T14:17:37;98300.60;;;23.08
68027;BMP180;54819;48.030;14.710;2023-09-30T14:20:04;98301.80;;;23.10
68027;BMP180;54819;48.030;14.710;2023-09-30T14:22:33;98303.40;;;23.10